Time;durP1;ratioP1;P1;durP2;ratioP2;P2;SDS_P1;SDS_P2;PMS_P1;PMS_P2;Temp;Humidity;BMP_temperature;BMP_pressure;BME280_temperature;BME280_humidity;BME280_pressure;Samples;Min_cycle;Max_cycle;Signal;HPM_P1;HPM_P2
2022/04/17 00:01:52;;;;;;;25.25;15.10;;;;;;;;;;6243145;23;20016;-85
2022/04/17 00:04:19;;;;;;;24.77;14.80;;;;;;;;;;6193061;23;20020;-85
2022/04/17 00:06:47;;;;;;;28.52;15.57;;;;;;;;;;6220175;23;20389;-90
2022/04/17 00:09:16;;;;;;;29.13;16.17;;;;;;;;;;6217980;23;20047;-90
2022/04/17 00:11:44;;;;;;;35.25;16.65;;;;;;;;;;6254333;23;20023;-90
2022/04/17 00:14:12;;;;;;;29.23;15.75;;;;;;;;;;6230218;23;20019;-91
2022/04/17 00:16:40;;;;;;;33.08;16.50;;;;;;;;;;6229180;23;20027;-92
2022/04/17 00:19:08;;;;;;;33.60;16.50;;;;;;;;;;6228551;23;20094;-92
2022/04/17 00:21:36;;;;;;;28.95;16.17;;;;;;;;;;6193616;23;20107;-91
2022/04/17 00:24:04;;;;;;;35.97;17.08;;;;;;;;;;6193707;23;20082;-92
2022/04/17 00:26:32;;;;;;;36.78;17.80;;;;;;;;;;6228058;23;20024;-92
2022/04/17 00:28:59;;;;;;;48.45;18.60;;;;;;;;;;6193361;23;20103;-92
2022/04/17 00:31:28;;;;;;;51.05;19.30;;;;;;;;;;6193679;23;20024;-90
2022/04/17 00:33:56;;;;;;;83.72;32.28;;;;;;;;;;6218410;23;20048;-91
2022/04/17 00:36:23;;;;;;;84.10;34.42;;;;;;;;;;6230928;23;20020;-91
2022/04/17 00:38:51;;;;;;;81.10;34.95;;;;;;;;;;6220572;23;20016;-91
2022/04/17 00:41:19;;;;;;;110.20;40.78;;;;;;;;;;6193122;23;20042;-91
2022/04/17 00:43:48;;;;;;;66.53;33.30;;;;;;;;;;6228241;23;20027;-91
2022/04/17 00:46:16;;;;;;;68.72;29.45;;;;;;;;;;6217995;23;20028;-91
2022/04/17 00:48:44;;;;;;;62.05;27.88;;;;;;;;;;6193379;23;20020;-91
2022/04/17 00:51:13;;;;;;;50.20;23.15;;;;;;;;;;6218313;23;20047;-91
2022/04/17 00:53:43;;;;;;;41.50;20.98;;;;;;;;;;6220022;23;20024;-91
2022/04/17 00:56:12;;;;;;;43.35;20.85;;;;;;;;;;6218358;23;20385;-91
2022/04/17 00:58:40;;;;;;;32.65;17.02;;;;;;;;;;6193238;23;20083;-91
2022/04/17 01:01:08;;;;;;;34.22;16.85;;;;;;;;;;6228029;23;20046;-90
2022/04/17 01:03:35;;;;;;;29.02;15.65;;;;;;;;;;6228978;23;20012;-90
2022/04/17 01:06:04;;;;;;;28.73;15.13;;;;;;;;;;6218078;23;20028;-90
2022/04/17 01:08:34;;;;;;;33.65;16.42;;;;;;;;;;6217789;23;21964;-90
2022/04/17 01:11:02;;;;;;;31.77;15.07;;;;;;;;;;6193142;23;20027;-91
2022/04/17 01:13:31;;;;;;;29.60;15.95;;;;;;;;;;6253594;23;20016;-91
2022/04/17 01:16:05;;;;;;;29.85;15.82;;;;;;;;;;6194116;23;20067;-91
2022/04/17 01:18:56;;;;;;;27.60;15.35;;;;;;;;;;6252827;23;20027;-86
2022/04/17 01:21:24;;;;;;;31.45;16.95;;;;;;;;;;6228070;23;20511;-86
2022/04/17 01:26:58;;;;;;;33.03;16.38;;;;;;;;;;6219128;23;20024;-86
2022/04/17 01:29:34;;;;;;;36.67;16.75;;;;;;;;;;6255158;23;20020;-86
2022/04/17 01:32:03;;;;;;;37.67;18.23;;;;;;;;;;6218363;23;20026;-85
2022/04/17 01:34:32;;;;;;;28.92;17.27;;;;;;;;;;6248263;22;20462;-89
2022/04/17 01:37:00;;;;;;;32.13;17.23;;;;;;;;;;6241869;22;20019;-89
2022/04/17 01:39:28;;;;;;;39.22;17.17;;;;;;;;;;6209121;22;20388;-89
2022/04/17 01:41:57;;;;;;;37.00;18.15;;;;;;;;;;6280790;22;20045;-89
2022/04/17 01:44:28;;;;;;;32.25;16.38;;;;;;;;;;6255995;22;20023;-89
2022/04/17 01:46:57;;;;;;;36.08;16.17;;;;;;;;;;6290719;22;20019;-89
2022/04/17 01:49:26;;;;;;;30.75;16.45;;;;;;;;;;6227159;22;20034;-89
2022/04/17 01:51:54;;;;;;;32.35;16.92;;;;;;;;;;6229989;22;20019;-89
2022/04/17 01:54:25;;;;;;;30.25;14.40;;;;;;;;;;6290957;22;20011;-89
2022/04/17 01:56:52;;;;;;;34.17;15.75;;;;;;;;;;6263824;22;20117;-89
2022/04/17 01:59:22;;;;;;;30.20;15.65;;;;;;;;;;6229324;22;20041;-89
2022/04/17 02:01:50;;;;;;;32.17;15.77;;;;;;;;;;6273904;22;20012;-89
2022/04/17 02:04:18;;;;;;;27.42;13.75;;;;;;;;;;6234380;22;20020;-89
2022/04/17 02:06:47;;;;;;;28.10;14.73;;;;;;;;;;6290341;22;20019;-89
2022/04/17 02:09:17;;;;;;;29.40;15.27;;;;;;;;;;6265205;22;20340;-89
2022/04/17 02:11:45;;;;;;;30.35;14.20;;;;;;;;;;6254045;22;20027;-89
2022/04/17 02:14:12;;;;;;;25.60;13.82;;;;;;;;;;6265619;22;20015;-89
2022/04/17 02:16:40;;;;;;;28.88;14.80;;;;;;;;;;6278804;22;20041;-89
2022/04/17 02:19:08;;;;;;;30.58;14.10;;;;;;;;;;6258015;22;20011;-89
2022/04/17 02:21:36;;;;;;;29.55;14.70;;;;;;;;;;6269553;22;20038;-89
2022/04/17 02:24:05;;;;;;;25.88;13.35;;;;;;;;;;6233710;22;20030;-89
2022/04/17 02:26:32;;;;;;;25.67;14.20;;;;;;;;;;6282215;22;20027;-89
2022/04/17 02:29:00;;;;;;;34.10;14.55;;;;;;;;;;6264287;22;20192;-89
2022/04/17 02:31:28;;;;;;;22.48;12.73;;;;;;;;;;6254790;22;20015;-89
2022/04/17 02:33:57;;;;;;;25.13;13.43;;;;;;;;;;6292488;22;20015;-89
2022/04/17 02:36:26;;;;;;;26.13;14.48;;;;;;;;;;6291573;22;20015;-89
2022/04/17 02:38:54;;;;;;;26.08;12.50;;;;;;;;;;6229510;22;20019;-89
2022/04/17 02:41:22;;;;;;;21.30;12.32;;;;;;;;;;6254950;22;20030;-90
2022/04/17 02:43:50;;;;;;;24.50;13.50;;;;;;;;;;6318406;22;20217;-89
2022/04/17 02:47:42;;;;;;;27.85;12.93;;;;;;;;;;6231782;22;20019;-89
2022/04/17 02:49:06;;;;;;;28.88;13.30;;;;;;;;;;6255948;22;20400;-89
2022/04/17 02:51:33;;;;;;;29.10;13.23;;;;;;;;;;6254652;22;20019;-89
2022/04/17 02:54:02;;;;;;;32.08;13.85;;;;;;;;;;6231895;22;20019;-89
2022/04/17 02:56:29;;;;;;;26.92;14.60;;;;;;;;;;6292136;22;20069;-89
2022/04/17 02:58:57;;;;;;;25.15;12.75;;;;;;;;;;6254759;22;20030;-89
2022/04/17 03:06:57;;;;;;;18.83;10.57;;;;;;;;;;6291185;22;20065;-89
2022/04/17 03:09:25;;;;;;;22.10;11.88;;;;;;;;;;6254490;22;20046;-89
2022/04/17 03:11:54;;;;;;;19.52;11.30;;;;;;;;;;6265136;22;20015;-89
2022/04/17 03:14:21;;;;;;;24.02;11.00;;;;;;;;;;6258091;22;20026;-89
2022/04/17 03:16:49;;;;;;;18.05;10.90;;;;;;;;;;6230877;22;20019;-89
2022/04/17 03:19:18;;;;;;;23.15;11.43;;;;;;;;;;6265363;22;20011;-89
2022/04/17 03:21:45;;;;;;;24.63;12.35;;;;;;;;;;6224202;22;20019;-89
2022/04/17 03:24:15;;;;;;;22.23;11.55;;;;;;;;;;6247448;22;20023;-89
2022/04/17 03:26:48;;;;;;;22.65;11.77;;;;;;;;;;6231300;22;20108;-89
2022/04/17 03:29:18;;;;;;;20.30;10.27;;;;;;;;;;6234669;22;20015;-89
2022/04/17 03:31:46;;;;;;;23.13;10.65;;;;;;;;;;6281237;22;20061;-89
2022/04/17 03:34:14;;;;;;;20.65;10.85;;;;;;;;;;6307248;22;20018;-89
2022/04/17 03:36:41;;;;;;;24.55;11.63;;;;;;;;;;6230623;22;20015;-89
2022/04/17 03:39:09;;;;;;;19.52;11.02;;;;;;;;;;6256059;22;20047;-89
2022/04/17 03:41:37;;;;;;;19.73;10.15;;;;;;;;;;6229566;22;20029;-89
2022/04/17 03:44:05;;;;;;;20.67;10.45;;;;;;;;;;6230804;22;20019;-89
2022/04/17 03:46:33;;;;;;;17.95;9.85;;;;;;;;;;6266532;22;20025;-89
2022/04/17 03:49:03;;;;;;;22.55;9.73;;;;;;;;;;6229446;22;20023;-89
2022/04/17 03:51:31;;;;;;;24.67;11.02;;;;;;;;;;6254296;22;20054;-89
2022/04/17 03:53:59;;;;;;;16.88;9.82;;;;;;;;;;6231748;22;20019;-89
2022/04/17 03:56:28;;;;;;;17.50;9.13;;;;;;;;;;6232218;22;20023;-89
2022/04/17 03:58:56;;;;;;;16.83;9.80;;;;;;;;;;6225275;22;20023;-89
2022/04/17 04:01:26;;;;;;;16.58;9.32;;;;;;;;;;6286337;22;20019;-89
2022/04/17 04:03:54;;;;;;;20.48;9.85;;;;;;;;;;6231196;22;20321;-89
2022/04/17 04:06:22;;;;;;;15.00;9.02;;;;;;;;;;6266085;22;20015;-89
2022/04/17 04:08:50;;;;;;;18.10;8.93;;;;;;;;;;6230408;22;20019;-90
2022/04/17 04:11:17;;;;;;;19.42;9.13;;;;;;;;;;6317617;22;20030;-89
2022/04/17 04:13:45;;;;;;;16.10;8.85;;;;;;;;;;6230775;22;20029;-89
2022/04/17 04:16:14;;;;;;;24.58;9.55;;;;;;;;;;6230524;22;20046;-90
2022/04/17 04:18:41;;;;;;;36.00;11.63;;;;;;;;;;6229243;22;20444;-89
2022/04/17 04:21:09;;;;;;;66.00;14.20;;;;;;;;;;6253945;22;20019;-89
2022/04/17 04:23:38;;;;;;;42.55;13.02;;;;;;;;;;6254680;22;20045;-89
2022/04/17 04:26:06;;;;;;;57.00;13.25;;;;;;;;;;6267317;22;20022;-89
2022/04/17 04:28:34;;;;;;;38.83;12.50;;;;;;;;;;6228735;22;20047;-89
2022/04/17 04:31:21;;;;;;;24.38;10.05;;;;;;;;;;6265014;22;20022;-89
2022/04/17 04:33:47;;;;;;;18.52;9.50;;;;;;;;;;6291245;22;20068;-89
2022/04/17 04:36:15;;;;;;;20.05;9.25;;;;;;;;;;6230345;22;20027;-89
2022/04/17 04:38:43;;;;;;;18.27;9.32;;;;;;;;;;6252922;22;20111;-89
2022/04/17 04:41:12;;;;;;;20.15;9.73;;;;;;;;;;6260153;22;20063;-90
2022/04/17 04:43:39;;;;;;;17.73;8.90;;;;;;;;;;6265733;22;20015;-89
2022/04/17 04:46:08;;;;;;;18.88;8.27;;;;;;;;;;6266887;22;20015;-89
2022/04/17 04:51:26;;;;;;;18.88;8.68;;;;;;;;;;6254696;22;20351;-89
2022/04/17 04:53:56;;;;;;;19.98;8.60;;;;;;;;;;6256263;22;20019;-90
2022/04/17 04:56:24;;;;;;;14.18;8.75;;;;;;;;;;6229934;22;20076;-89
2022/04/17 04:58:51;;;;;;;17.27;8.63;;;;;;;;;;6253548;22;20456;-89
2022/04/17 05:01:19;;;;;;;14.90;8.27;;;;;;;;;;6246322;22;20019;-89
2022/04/17 05:03:47;;;;;;;16.02;8.77;;;;;;;;;;6249184;22;20020;-89
2022/04/17 05:06:17;;;;;;;17.70;9.13;;;;;;;;;;6230499;22;20080;-89
2022/04/17 05:08:43;;;;;;;20.40;8.35;;;;;;;;;;6263981;22;20067;-89
2022/04/17 05:11:11;;;;;;;18.38;8.50;;;;;;;;;;6263891;22;20015;-89
2022/04/17 05:13:40;;;;;;;18.55;8.45;;;;;;;;;;6236172;22;20082;-89
2022/04/17 05:16:08;;;;;;;17.20;9.07;;;;;;;;;;6230589;22;20019;-89
2022/04/17 05:18:35;;;;;;;14.18;8.48;;;;;;;;;;6248805;22;20492;-89
2022/04/17 05:21:05;;;;;;;16.48;8.50;;;;;;;;;;6249608;22;20015;-89
2022/04/17 05:23:36;;;;;;;14.23;8.45;;;;;;;;;;6265663;22;20018;-89
2022/04/17 05:26:05;;;;;;;23.35;9.55;;;;;;;;;;6256507;22;20023;-89
2022/04/17 05:28:32;;;;;;;17.05;8.93;;;;;;;;;;6228956;22;20854;-89
2022/04/17 05:31:02;;;;;;;18.58;9.07;;;;;;;;;;6279861;22;20046;-89
2022/04/17 05:33:29;;;;;;;17.80;8.93;;;;;;;;;;6229506;22;20019;-89
2022/04/17 05:35:57;;;;;;;17.20;8.75;;;;;;;;;;6231289;22;20019;-89
2022/04/17 05:38:26;;;;;;;15.82;9.77;;;;;;;;;;6230014;22;20041;-89
2022/04/17 05:40:54;;;;;;;23.80;9.15;;;;;;;;;;6270877;22;20025;-89
2022/04/17 05:43:22;;;;;;;14.27;8.80;;;;;;;;;;6303014;22;20015;-89
2022/04/17 05:45:49;;;;;;;22.20;9.50;;;;;;;;;;6291687;22;20029;-89
2022/04/17 05:48:18;;;;;;;18.75;8.80;;;;;;;;;;6253786;22;20489;-89
2022/04/17 05:50:46;;;;;;;21.50;9.90;;;;;;;;;;6264325;22;20095;-89
2022/04/17 05:53:14;;;;;;;18.23;8.82;;;;;;;;;;6291782;22;20090;-89
2022/04/17 05:55:41;;;;;;;14.95;8.38;;;;;;;;;;6257033;22;20375;-89
2022/04/17 05:58:09;;;;;;;18.50;9.10;;;;;;;;;;6230668;22;20098;-89
2022/04/17 06:00:42;;;;;;;14.68;8.60;;;;;;;;;;6255115;22;20015;-89
2022/04/17 06:03:10;;;;;;;15.90;8.23;;;;;;;;;;6280719;22;20356;-89
2022/04/17 06:05:37;;;;;;;15.93;8.73;;;;;;;;;;6271069;22;20019;-89
2022/04/17 06:08:06;;;;;;;16.05;9.02;;;;;;;;;;6230754;22;20050;-89
2022/04/17 06:10:34;;;;;;;16.85;9.10;;;;;;;;;;6291846;22;20007;-89
2022/04/17 06:13:01;;;;;;;14.82;7.63;;;;;;;;;;6256260;22;20105;-89
2022/04/17 06:15:29;;;;;;;13.85;8.32;;;;;;;;;;6293426;22;20011;-89
2022/04/17 06:17:58;;;;;;;14.25;8.30;;;;;;;;;;6256326;22;20023;-89
2022/04/17 06:20:26;;;;;;;16.40;8.55;;;;;;;;;;6255999;22;20045;-90
2022/04/17 06:22:53;;;;;;;16.75;8.43;;;;;;;;;;6281215;22;20015;-89
2022/04/17 06:25:21;;;;;;;12.68;6.93;;;;;;;;;;6233130;22;20130;-89
2022/04/17 06:27:49;;;;;;;14.02;7.00;;;;;;;;;;6231112;22;20432;-89
2022/04/17 06:30:19;;;;;;;11.43;6.72;;;;;;;;;;6290807;22;20015;-89
2022/04/17 06:32:48;;;;;;;11.38;6.25;;;;;;;;;;6230274;22;20084;-89
2022/04/17 06:35:16;;;;;;;10.52;5.95;;;;;;;;;;6259013;22;20092;-89
2022/04/17 06:37:46;;;;;;;9.07;5.57;;;;;;;;;;6291031;22;20019;-89
2022/04/17 06:40:24;;;;;;;9.30;5.80;;;;;;;;;;6291032;22;20016;-89
2022/04/17 06:42:54;;;;;;;10.55;5.90;;;;;;;;;;6291200;22;20015;-89
2022/04/17 06:45:25;;;;;;;11.93;5.35;;;;;;;;;;6268556;22;20019;-89
2022/04/17 06:47:54;;;;;;;11.10;5.20;;;;;;;;;;6291682;22;20011;-89
2022/04/17 06:50:22;;;;;;;10.70;4.85;;;;;;;;;;6226277;22;20019;-89
2022/04/17 06:52:50;;;;;;;7.32;3.85;;;;;;;;;;6290662;22;20431;-89
2022/04/17 06:55:17;;;;;;;8.00;3.97;;;;;;;;;;6257633;22;20023;-89
2022/04/17 06:57:49;;;;;;;6.10;3.13;;;;;;;;;;6255197;22;20053;-89
2022/04/17 07:00:18;;;;;;;8.98;3.63;;;;;;;;;;6290540;22;20019;-90
2022/04/17 07:02:45;;;;;;;5.53;2.85;;;;;;;;;;6254032;22;20016;-89
2022/04/17 07:05:15;;;;;;;6.70;3.47;;;;;;;;;;6268644;22;20014;-89
2022/04/17 07:07:43;;;;;;;5.88;2.75;;;;;;;;;;6230700;22;20471;-91
2022/04/17 07:10:11;;;;;;;6.13;3.15;;;;;;;;;;6255415;22;20094;-90
2022/04/17 07:12:39;;;;;;;7.38;2.58;;;;;;;;;;6255357;22;20027;-90
2022/04/17 07:15:11;;;;;;;7.25;3.25;;;;;;;;;;6235434;22;20128;-89
2022/04/17 07:17:40;;;;;;;5.05;3.08;;;;;;;;;;6268527;22;20068;-89
2022/04/17 07:20:08;;;;;;;5.65;3.03;;;;;;;;;;6267486;22;20019;-89
2022/04/17 07:22:40;;;;;;;6.05;2.70;;;;;;;;;;6256373;22;20102;-90
2022/04/17 07:25:11;;;;;;;4.65;2.45;;;;;;;;;;6258008;22;20053;-89
2022/04/17 07:27:43;;;;;;;5.22;2.42;;;;;;;;;;6317881;22;20524;-89
2022/04/17 07:30:16;;;;;;;4.78;2.35;;;;;;;;;;6281749;22;20023;-89
2022/04/17 07:32:46;;;;;;;5.57;2.50;;;;;;;;;;6230898;22;20037;-89
2022/04/17 07:35:17;;;;;;;4.45;1.85;;;;;;;;;;6267646;22;20026;-90
2022/04/17 07:37:57;;;;;;;4.05;2.30;;;;;;;;;;6291429;22;20026;-89
2022/04/17 07:40:27;;;;;;;5.97;2.22;;;;;;;;;;6265004;22;20011;-89
2022/04/17 07:42:58;;;;;;;5.90;2.25;;;;;;;;;;6256086;22;20065;-89
2022/04/17 07:45:25;;;;;;;5.07;2.40;;;;;;;;;;6293810;22;20019;-89
2022/04/17 07:47:53;;;;;;;8.63;3.00;;;;;;;;;;6255295;22;20038;-89
2022/04/17 07:50:26;;;;;;;6.50;2.53;;;;;;;;;;6230263;22;20223;-89
2022/04/17 07:52:53;;;;;;;5.32;2.35;;;;;;;;;;6280139;22;20110;-89
2022/04/17 07:55:22;;;;;;;5.88;2.40;;;;;;;;;;6231055;22;20722;-89
2022/04/17 07:58:11;;;;;;;4.00;1.73;;;;;;;;;;6253993;22;20027;-89
2022/04/17 08:00:48;;;;;;;6.70;2.28;;;;;;;;;;6254831;22;20106;-89
2022/04/17 08:05:50;;;;;;;6.93;2.17;;;;;;;;;;6319228;22;20068;-89
2022/04/17 08:08:17;;;;;;;5.18;2.45;;;;;;;;;;6279045;22;20422;-89
2022/04/17 08:10:46;;;;;;;6.07;2.60;;;;;;;;;;6228881;22;20011;-89
2022/04/17 08:13:13;;;;;;;7.57;2.90;;;;;;;;;;6223347;22;20020;-89
2022/04/17 08:15:41;;;;;;;7.00;2.92;;;;;;;;;;6257098;22;20097;-89
2022/04/17 08:18:09;;;;;;;6.68;3.03;;;;;;;;;;6253943;22;20072;-89
2022/04/17 08:20:37;;;;;;;6.68;3.10;;;;;;;;;;6228641;22;20015;-89
2022/04/17 08:23:05;;;;;;;6.03;3.00;;;;;;;;;;6229281;22;20019;-89
2022/04/17 08:25:33;;;;;;;8.55;2.95;;;;;;;;;;6293196;22;20026;-89
2022/04/17 08:28:02;;;;;;;5.53;2.70;;;;;;;;;;6289960;22;20137;-89
2022/04/17 08:30:30;;;;;;;7.38;2.95;;;;;;;;;;6227047;22;20019;-89
2022/04/17 08:32:58;;;;;;;5.45;2.60;;;;;;;;;;6254229;22;20019;-89
2022/04/17 08:35:26;;;;;;;4.78;2.53;;;;;;;;;;6255539;22;20072;-90
2022/04/17 08:38:09;;;;;;;5.88;2.65;;;;;;;;;;6270576;22;20520;-89
2022/04/17 08:40:38;;;;;;;5.00;2.20;;;;;;;;;;6228400;22;20073;-89
2022/04/17 08:43:18;;;;;;;6.60;2.35;;;;;;;;;;6264208;22;20023;-88
2022/04/17 08:45:46;;;;;;;3.38;1.77;;;;;;;;;;6254693;22;20608;-89
2022/04/17 08:48:15;;;;;;;4.53;1.88;;;;;;;;;;6229312;22;20035;-89
2022/04/17 08:50:43;;;;;;;3.10;1.60;;;;;;;;;;6289054;22;20025;-89
2022/04/17 08:53:15;;;;;;;4.38;1.92;;;;;;;;;;6228765;22;20030;-89
2022/04/17 08:55:50;;;;;;;2.75;1.40;;;;;;;;;;6278636;22;20030;-89
2022/04/17 08:58:19;;;;;;;3.05;1.55;;;;;;;;;;6256015;22;19999;-89
2022/04/17 09:00:47;;;;;;;3.50;1.70;;;;;;;;;;6260028;22;20015;-89
2022/04/17 09:03:15;;;;;;;6.63;2.03;;;;;;;;;;6289745;22;19999;-89
2022/04/17 09:05:43;;;;;;;4.07;1.77;;;;;;;;;;6229031;22;20365;-89
2022/04/17 09:08:13;;;;;;;5.55;2.15;;;;;;;;;;6283667;22;20062;-89
2022/04/17 09:10:50;;;;;;;5.93;1.77;;;;;;;;;;6263618;22;20114;-89
2022/04/17 09:13:34;;;;;;;3.88;1.85;;;;;;;;;;6228933;22;20027;-89
2022/04/17 09:16:02;;;;;;;7.03;1.80;;;;;;;;;;6280303;22;20325;-89
2022/04/17 09:18:32;;;;;;;5.55;2.17;;;;;;;;;;6254113;22;20030;-89
2022/04/17 09:21:01;;;;;;;5.97;1.73;;;;;;;;;;6253321;22;20520;-88
2022/04/17 09:23:36;;;;;;;3.90;1.90;;;;;;;;;;6254234;22;20019;-88
2022/04/17 09:26:06;;;;;;;4.80;1.95;;;;;;;;;;6256979;22;20030;-89
2022/04/17 09:28:40;;;;;;;5.57;2.25;;;;;;;;;;6291120;22;20357;-89
2022/04/17 09:31:13;;;;;;;4.38;2.45;;;;;;;;;;6255223;22;20031;-89
2022/04/17 09:33:42;;;;;;;6.20;2.55;;;;;;;;;;6256537;22;20073;-89
2022/04/17 09:36:12;;;;;;;5.38;2.58;;;;;;;;;;6233308;22;20042;-89
2022/04/17 09:38:42;;;;;;;4.57;2.97;;;;;;;;;;6254790;22;20023;-90
2022/04/17 09:41:13;;;;;;;6.82;3.05;;;;;;;;;;6244445;22;20020;-89
2022/04/17 09:43:43;;;;;;;7.55;3.58;;;;;;;;;;6231563;22;20023;-89
2022/04/17 09:46:12;;;;;;;6.50;2.78;;;;;;;;;;6294821;22;20025;-89
2022/04/17 09:48:41;;;;;;;5.85;2.70;;;;;;;;;;6261640;22;20625;-89
2022/04/17 09:51:30;;;;;;;4.20;2.35;;;;;;;;;;6251334;22;20495;-89
2022/04/17 09:54:04;;;;;;;6.43;2.78;;;;;;;;;;6263012;22;20032;-88
2022/04/17 09:56:39;;;;;;;5.22;2.20;;;;;;;;;;6256261;22;20054;-89
2022/04/17 09:59:23;;;;;;;5.43;2.50;;;;;;;;;;6255188;22;20019;-89
2022/04/17 10:01:54;;;;;;;4.18;2.30;;;;;;;;;;6291146;22;20019;-89
2022/04/17 10:04:24;;;;;;;4.78;2.22;;;;;;;;;;6292882;22;20068;-89
2022/04/17 10:06:54;;;;;;;3.92;2.13;;;;;;;;;;6255508;22;20484;-89
2022/04/17 10:09:22;;;;;;;2.83;1.70;;;;;;;;;;6291453;22;20015;-89
2022/04/17 10:11:51;;;;;;;2.88;1.40;;;;;;;;;;6254550;22;20393;-89
2022/04/17 10:14:19;;;;;;;4.18;1.73;;;;;;;;;;6232324;22;20027;-88
2022/04/17 10:16:49;;;;;;;4.88;1.50;;;;;;;;;;6257459;22;20448;-89
2022/04/17 10:19:24;;;;;;;3.03;1.45;;;;;;;;;;6305143;22;19995;-89
2022/04/17 10:21:53;;;;;;;3.60;1.67;;;;;;;;;;6318389;22;20009;-89
2022/04/17 10:24:23;;;;;;;3.28;1.70;;;;;;;;;;6272223;22;20007;-91
2022/04/17 10:26:54;;;;;;;4.85;1.95;;;;;;;;;;6265717;22;20023;-91
2022/04/17 10:29:33;;;;;;;3.40;1.52;;;;;;;;;;6230154;22;20664;-91
2022/04/17 10:32:33;;;;;;;4.10;1.60;;;;;;;;;;6255020;22;20019;-91
2022/04/17 10:35:15;;;;;;;3.78;1.48;;;;;;;;;;6232243;22;20102;-91
2022/04/17 10:38:13;;;;;;;4.93;1.98;;;;;;;;;;6229191;22;20023;-90
2022/04/17 10:40:40;;;;;;;3.08;1.38;;;;;;;;;;6229702;22;20072;-92
2022/04/17 10:43:08;;;;;;;3.42;1.40;;;;;;;;;;6255581;22;20357;-92
2022/04/17 10:46:06;;;;;;;5.85;1.45;;;;;;;;;;6256135;22;20072;-92
2022/04/17 10:48:57;;;;;;;2.55;1.13;;;;;;;;;;6265839;22;20023;-92
2022/04/17 10:51:30;;;;;;;2.30;1.08;;;;;;;;;;6291321;22;20088;-91
2022/04/17 10:54:10;;;;;;;2.50;1.30;;;;;;;;;;6232450;22;20023;-92
2022/04/17 10:56:53;;;;;;;2.88;1.40;;;;;;;;;;6208046;22;20050;-92
2022/04/17 10:59:31;;;;;;;3.20;1.60;;;;;;;;;;6228204;22;20016;-91
2022/04/17 11:02:03;;;;;;;2.65;1.17;;;;;;;;;;6255388;22;20047;-91
2022/04/17 11:04:56;;;;;;;3.42;1.60;;;;;;;;;;6267297;22;20015;-91
2022/04/17 11:07:30;;;;;;;2.65;1.17;;;;;;;;;;6254956;22;20722;-91
2022/04/17 11:10:23;;;;;;;3.33;1.35;;;;;;;;;;6253741;22;20051;-91
2022/04/17 11:12:54;;;;;;;2.95;1.50;;;;;;;;;;6245422;22;20015;-91
2022/04/17 11:16:06;;;;;;;2.78;1.40;;;;;;;;;;6232587;22;20030;-92
2022/04/17 11:18:33;;;;;;;2.67;1.20;;;;;;;;;;6253431;22;20033;-91
2022/04/17 11:21:01;;;;;;;2.75;1.48;;;;;;;;;;6290299;22;20042;-91
2022/04/17 11:24:02;;;;;;;3.50;1.00;;;;;;;;;;6254945;22;20029;-91
2022/04/17 11:26:52;;;;;;;2.80;1.00;;;;;;;;;;6136609;23;20039;-91
2022/04/17 11:29:38;;;;;;;4.80;1.40;;;;;;;;;;6134383;23;20048;-91
2022/04/17 11:32:17;;;;;;;2.50;1.13;;;;;;;;;;6178518;23;20013;-91
2022/04/17 11:34:52;;;;;;;3.20;1.10;;;;;;;;;;6146808;23;20060;-90
2022/04/17 11:37:24;;;;;;;3.67;1.10;;;;;;;;;;6153671;23;20040;-91
2022/04/17 11:39:54;;;;;;;2.30;1.10;;;;;;;;;;6201951;23;20048;-91
2022/04/17 11:42:21;;;;;;;2.72;1.20;;;;;;;;;;6135280;23;20072;-91
2022/04/17 11:44:50;;;;;;;2.65;1.20;;;;;;;;;;6134837;23;20024;-92
2022/04/17 11:47:20;;;;;;;2.50;1.00;;;;;;;;;;6186092;23;20045;-91
2022/04/17 11:50:02;;;;;;;3.85;1.40;;;;;;;;;;6162542;23;20032;-92
2022/04/17 11:52:30;;;;;;;2.03;1.00;;;;;;;;;;6163346;23;20036;-92
2022/04/17 11:55:00;;;;;;;2.47;1.27;;;;;;;;;;6167672;23;20021;-92
2022/04/17 11:57:28;;;;;;;3.17;1.08;;;;;;;;;;6133850;23;20024;-91
2022/04/17 11:59:57;;;;;;;3.53;1.25;;;;;;;;;;6132975;23;20021;-91
2022/04/17 12:02:27;;;;;;;3.47;1.33;;;;;;;;;;6229378;22;20020;-92
2022/04/17 12:05:20;;;;;;;3.28;1.25;;;;;;;;;;6231971;22;20019;-92
2022/04/17 12:08:31;;;;;;;3.38;1.33;;;;;;;;;;6231430;22;20023;-92
2022/04/17 12:11:00;;;;;;;2.97;1.42;;;;;;;;;;6255398;22;20022;-92
2022/04/17 12:13:33;;;;;;;3.05;1.23;;;;;;;;;;6255851;22;20019;-92
2022/04/17 12:16:09;;;;;;;3.47;1.23;;;;;;;;;;6231229;22;20027;-92
2022/04/17 12:18:37;;;;;;;2.47;1.10;;;;;;;;;;6254604;22;20117;-92
2022/04/17 12:21:06;;;;;;;2.22;1.20;;;;;;;;;;6254159;22;20452;-91
2022/04/17 12:23:34;;;;;;;3.42;1.30;;;;;;;;;;6290657;22;20023;-91
2022/04/17 12:26:06;;;;;;;2.33;1.05;;;;;;;;;;6231968;22;20326;-92
2022/04/17 12:29:01;;;;;;;2.53;1.10;;;;;;;;;;6292835;22;20019;-91
2022/04/17 12:31:28;;;;;;;3.92;1.30;;;;;;;;;;6229822;22;20024;-92
2022/04/17 12:34:08;;;;;;;4.18;1.30;;;;;;;;;;6229506;22;20020;-91
2022/04/17 12:36:42;;;;;;;2.78;1.40;;;;;;;;;;6230494;22;20073;-91
2022/04/17 12:39:10;;;;;;;2.53;1.20;;;;;;;;;;6289287;22;20379;-92
2022/04/17 12:41:46;;;;;;;3.20;1.15;;;;;;;;;;6254040;22;20031;-91
2022/04/17 12:45:00;;;;;;;1.80;0.93;;;;;;;;;;6255209;22;20347;-92
2022/04/17 12:47:39;;;;;;;25.33;2.00;;;;;;;;;;6210870;22;20024;-90
2022/04/17 12:50:13;;;;;;;4.18;1.38;;;;;;;;;;6223482;22;20023;-91
2022/04/17 12:52:42;;;;;;;2.47;1.15;;;;;;;;;;6224586;22;20955;-90
2022/04/17 12:58:59;;;;;;;1.52;0.80;;;;;;;;;;6227897;23;20017;-91
2022/04/17 13:01:28;;;;;;;2.10;0.93;;;;;;;;;;6190967;23;20390;-92
2022/04/17 13:05:03;;;;;;;1.98;0.98;;;;;;;;;;6188409;23;20028;-93
2022/04/17 13:08:32;;;;;;;3.95;1.33;;;;;;;;;;6093040;23;20463;-92
2022/04/17 13:12:36;;;;;;;2.92;1.20;;;;;;;;;;6132156;23;20077;-93
2022/04/17 13:16:01;;;;;;;2.38;1.02;;;;;;;;;;6124916;23;20025;-92
2022/04/17 13:18:32;;;;;;;1.85;1.00;;;;;;;;;;6104636;23;20018;-90
2022/04/17 13:21:01;;;;;;;3.05;1.27;;;;;;;;;;6073519;23;20420;-90
2022/04/17 13:23:29;;;;;;;4.88;0.93;;;;;;;;;;6073277;23;20408;-91
2022/04/17 13:25:56;;;;;;;1.67;0.95;;;;;;;;;;6073707;23;20053;-91
2022/04/17 13:28:24;;;;;;;1.98;0.90;;;;;;;;;;6074142;23;20077;-90
2022/04/17 13:30:53;;;;;;;2.53;1.02;;;;;;;;;;6083414;23;20018;-90
2022/04/17 13:33:20;;;;;;;2.45;1.00;;;;;;;;;;6096699;23;20372;-91
2022/04/17 13:35:48;;;;;;;4.10;1.20;;;;;;;;;;6049876;23;20021;-91
2022/04/17 13:38:16;;;;;;;2.58;1.10;;;;;;;;;;6073106;23;20036;-91
2022/04/17 13:40:48;;;;;;;2.13;1.10;;;;;;;;;;6074256;23;20022;-91
2022/04/17 13:43:16;;;;;;;2.28;0.90;;;;;;;;;;6132733;23;20107;-91
2022/04/17 13:45:44;;;;;;;3.83;1.10;;;;;;;;;;6227132;23;20064;-91
2022/04/17 13:48:12;;;;;;;1.65;0.85;;;;;;;;;;6252474;23;20051;-91
2022/04/17 13:50:40;;;;;;;4.03;1.40;;;;;;;;;;6222826;23;20025;-91
2022/04/17 13:53:08;;;;;;;3.03;1.20;;;;;;;;;;6222611;23;20022;-91
2022/04/17 13:55:37;;;;;;;2.58;0.88;;;;;;;;;;6192435;23;20024;-92
2022/04/17 13:58:04;;;;;;;2.83;1.10;;;;;;;;;;6228009;23;20096;-91
2022/04/17 14:00:32;;;;;;;2.13;1.13;;;;;;;;;;6192666;23;20020;-91
2022/04/17 14:03:01;;;;;;;2.88;1.20;;;;;;;;;;6187623;23;20046;-91
2022/04/17 14:05:28;;;;;;;3.08;1.00;;;;;;;;;;6225318;23;20443;-91
2022/04/17 14:07:57;;;;;;;2.08;0.98;;;;;;;;;;6186586;23;20021;-91
2022/04/17 14:10:26;;;;;;;2.33;1.00;;;;;;;;;;6187416;23;20020;-91
2022/04/17 14:12:55;;;;;;;3.72;1.10;;;;;;;;;;6184277;23;20019;-91
2022/04/17 14:15:23;;;;;;;2.55;1.17;;;;;;;;;;6198688;23;20020;-91
2022/04/17 14:17:50;;;;;;;2.03;1.05;;;;;;;;;;6203995;23;20024;-91
2022/04/17 14:20:18;;;;;;;2.30;0.98;;;;;;;;;;6165257;23;20047;-91
2022/04/17 14:22:46;;;;;;;2.65;1.08;;;;;;;;;;6189007;23;20351;-91
2022/04/17 14:25:14;;;;;;;1.58;0.85;;;;;;;;;;6253449;23;20016;-91
2022/04/17 14:27:42;;;;;;;3.88;1.33;;;;;;;;;;6188189;23;20020;-90
2022/04/17 14:30:11;;;;;;;2.50;1.17;;;;;;;;;;6151580;23;20389;-90
2022/04/17 14:32:38;;;;;;;2.38;1.10;;;;;;;;;;6243783;23;20190;-91
2022/04/17 14:35:07;;;;;;;3.85;1.10;;;;;;;;;;6188572;23;20399;-91
2022/04/17 14:37:34;;;;;;;1.55;0.80;;;;;;;;;;6195168;23;20449;-90
2022/04/17 14:40:03;;;;;;;2.33;0.98;;;;;;;;;;6224614;23;20071;-91
2022/04/17 14:42:30;;;;;;;2.22;1.10;;;;;;;;;;6228361;23;20016;-91
2022/04/17 14:44:58;;;;;;;2.22;0.93;;;;;;;;;;6229128;23;20020;-91
2022/04/17 14:47:26;;;;;;;3.28;1.10;;;;;;;;;;6191473;23;20031;-91
2022/04/17 14:49:54;;;;;;;4.32;1.38;;;;;;;;;;6244279;23;20078;-91
2022/04/17 14:52:23;;;;;;;4.47;1.25;;;;;;;;;;6228961;23;20020;-91
2022/04/17 14:54:50;;;;;;;3.97;1.20;;;;;;;;;;6188787;23;20027;-91
2022/04/17 14:57:18;;;;;;;1.42;0.90;;;;;;;;;;6188824;23;20028;-91
2022/04/17 14:59:46;;;;;;;2.47;0.98;;;;;;;;;;6212960;23;20028;-91
2022/04/17 15:02:14;;;;;;;1.48;0.88;;;;;;;;;;6213248;23;20095;-91
2022/04/17 15:04:42;;;;;;;2.40;1.10;;;;;;;;;;6243664;23;20031;-91
2022/04/17 15:07:10;;;;;;;2.15;1.10;;;;;;;;;;6244128;23;20397;-90
2022/04/17 15:09:38;;;;;;;2.65;0.90;;;;;;;;;;6188279;23;20020;-91
2022/04/17 15:12:06;;;;;;;3.65;1.10;;;;;;;;;;6162593;23;20020;-91
2022/04/17 15:14:35;;;;;;;1.98;1.05;;;;;;;;;;6169238;23;20020;-92
2022/04/17 15:17:05;;;;;;;3.40;0.93;;;;;;;;;;6218661;23;20020;-91